createdAt,value
2022-12-31T00:01:46.570Z,13.50
2022-12-31T00:04:13.373Z,13.50
2022-12-31T00:06:40.235Z,13.50
2022-12-31T00:09:08.973Z,13.50
2022-12-31T00:11:36.508Z,13.60
2022-12-31T00:14:03.590Z,13.60
2022-12-31T00:16:34.193Z,13.70
2022-12-31T00:19:01.218Z,13.70
2022-12-31T00:21:32.670Z,13.70
2022-12-31T00:23:59.572Z,13.70
2022-12-31T00:26:30.011Z,13.80
2022-12-31T00:28:59.092Z,13.80
2022-12-31T00:31:30.276Z,14.00
2022-12-31T00:33:58.342Z,14.00
2022-12-31T00:36:29.453Z,14.10
2022-12-31T00:38:57.832Z,14.10
2022-12-31T00:41:25.905Z,14.10
2022-12-31T00:43:53.204Z,14.20
2022-12-31T00:46:20.107Z,14.20
2022-12-31T00:48:47.098Z,14.20
2022-12-31T00:51:16.682Z,14.20
2022-12-31T00:53:44.122Z,14.30
2022-12-31T00:56:13.915Z,14.30
2022-12-31T00:58:41.749Z,14.30
2022-12-31T01:01:30.728Z,14.30
2022-12-31T01:04:14.550Z,14.40
2022-12-31T01:06:42.495Z,14.40
2022-12-31T01:09:11.119Z,14.40
2022-12-31T01:11:37.919Z,14.50
2022-12-31T01:14:10.717Z,14.60
2022-12-31T01:16:42.845Z,14.60
2022-12-31T01:19:12.587Z,14.70
2022-12-31T01:21:41.407Z,14.70
2022-12-31T01:24:10.428Z,14.80
2022-12-31T01:26:37.947Z,14.80
2022-12-31T01:29:06.543Z,14.90
2022-12-31T01:31:34.386Z,15.00
2022-12-31T01:34:01.612Z,15.00
2022-12-31T01:36:31.789Z,15.00
2022-12-31T01:39:00.634Z,15.00
2022-12-31T01:41:35.335Z,15.10
2022-12-31T01:44:14.139Z,15.20
2022-12-31T01:46:51.611Z,15.20
2022-12-31T01:49:36.571Z,15.20
2022-12-31T01:52:22.487Z,15.30
2022-12-31T01:54:55.570Z,15.30
2022-12-31T01:57:25.321Z,15.30
2022-12-31T01:59:54.059Z,15.40
2022-12-31T02:02:20.893Z,15.40
2022-12-31T02:04:50.698Z,15.40
2022-12-31T02:07:17.570Z,15.40
2022-12-31T02:09:44.483Z,15.30
2022-12-31T02:12:11.554Z,15.40
2022-12-31T02:14:42.724Z,15.30
2022-12-31T02:17:22.596Z,15.30
2022-12-31T02:20:21.359Z,15.30
2022-12-31T02:23:22.088Z,15.30
2022-12-31T02:26:26.463Z,15.40
2022-12-31T02:29:21.039Z,15.40
2022-12-31T02:31:57.797Z,15.50
2022-12-31T02:34:57.475Z,15.50
2022-12-31T02:37:27.293Z,15.50
2022-12-31T02:39:54.480Z,15.60
2022-12-31T02:42:21.209Z,15.60
2022-12-31T02:44:47.934Z,15.70
2022-12-31T02:47:26.031Z,15.70
2022-12-31T02:50:06.396Z,15.70
2022-12-31T02:53:00.633Z,15.80
2022-12-31T02:55:42.154Z,15.90
2022-12-31T02:58:15.232Z,15.90
2022-12-31T03:01:07.891Z,16.00
2022-12-31T03:03:36.415Z,16.10
2022-12-31T03:06:04.429Z,16.10
2022-12-31T03:08:31.376Z,16.10
2022-12-31T03:10:58.083Z,16.20
2022-12-31T03:13:25.075Z,16.20
2022-12-31T03:15:51.977Z,16.20
2022-12-31T03:18:39.465Z,16.20
2022-12-31T03:21:45.072Z,16.20
2022-12-31T03:24:30.496Z,16.20
2022-12-31T03:26:57.220Z,16.20
2022-12-31T03:29:23.987Z,16.20
2022-12-31T03:31:50.781Z,16.20
2022-12-31T03:34:17.675Z,16.20
2022-12-31T03:36:44.605Z,16.20
2022-12-31T03:39:11.324Z,16.20
2022-12-31T03:41:38.417Z,16.20
2022-12-31T03:44:05.487Z,16.20
2022-12-31T03:46:32.276Z,16.10
2022-12-31T03:48:59.050Z,16.10
2022-12-31T03:51:25.872Z,16.10
2022-12-31T03:53:52.528Z,16.20
2022-12-31T03:56:19.586Z,16.20
2022-12-31T03:58:46.240Z,16.10
2022-12-31T04:01:13.215Z,16.20
2022-12-31T04:03:39.978Z,16.20
2022-12-31T04:06:06.824Z,16.20
2022-12-31T04:08:33.606Z,16.20
2022-12-31T04:11:00.299Z,16.20
2022-12-31T04:13:27.082Z,16.20
2022-12-31T04:15:53.917Z,16.20
2022-12-31T04:18:20.765Z,16.20
2022-12-31T04:20:47.541Z,16.20
2022-12-31T04:23:14.209Z,16.10
2022-12-31T04:25:40.891Z,16.20
2022-12-31T04:28:07.645Z,16.10
2022-12-31T04:30:34.405Z,16.10
2022-12-31T04:33:01.148Z,16.20
2022-12-31T04:35:27.857Z,16.20
2022-12-31T04:37:54.555Z,16.20
2022-12-31T04:40:21.281Z,16.30
2022-12-31T04:42:47.981Z,16.30
2022-12-31T04:45:14.786Z,16.30
2022-12-31T04:47:41.520Z,16.40
2022-12-31T04:50:08.390Z,16.40
2022-12-31T04:52:42.117Z,16.40
2022-12-31T04:55:10.005Z,16.50
2022-12-31T04:57:36.784Z,16.50
2022-12-31T05:00:04.003Z,16.60
2022-12-31T05:02:31.133Z,16.60
2022-12-31T05:04:58.342Z,16.60
2022-12-31T05:07:25.329Z,16.60
2022-12-31T05:09:52.072Z,16.60
2022-12-31T05:12:19.067Z,16.70
2022-12-31T05:14:45.879Z,16.70
2022-12-31T05:17:12.695Z,16.70
2022-12-31T05:19:39.419Z,16.70
2022-12-31T05:22:24.845Z,16.80
2022-12-31T05:24:52.363Z,16.80
2022-12-31T05:27:19.041Z,16.80
2022-12-31T05:29:45.723Z,16.90
2022-12-31T05:32:12.497Z,16.90
2022-12-31T05:34:39.231Z,16.90
2022-12-31T05:37:05.925Z,16.90
2022-12-31T05:39:32.659Z,17.00
2022-12-31T05:41:59.363Z,17.00
2022-12-31T05:44:26.085Z,17.10
2022-12-31T05:46:52.844Z,17.00
2022-12-31T05:49:19.580Z,17.00
2022-12-31T05:51:46.403Z,17.10
2022-12-31T05:54:13.130Z,17.10
2022-12-31T05:56:39.842Z,17.10
2022-12-31T05:59:06.549Z,17.20
2022-12-31T06:01:33.312Z,17.20
2022-12-31T06:04:00.718Z,17.20
2022-12-31T06:06:27.691Z,17.20
2022-12-31T06:08:54.433Z,17.20
2022-12-31T06:11:21.325Z,17.20
2022-12-31T06:13:48.079Z,17.10
2022-12-31T06:16:14.890Z,17.10
2022-12-31T06:18:41.767Z,17.10
2022-12-31T06:21:08.849Z,17.10
2022-12-31T06:23:35.549Z,17.10
2022-12-31T06:26:05.903Z,17.10
2022-12-31T06:28:33.021Z,17.10
2022-12-31T06:31:08.501Z,17.10
2022-12-31T06:33:35.484Z,17.10
2022-12-31T06:36:04.561Z,17.20
2022-12-31T06:38:33.396Z,17.10
2022-12-31T06:41:04.664Z,17.20
2022-12-31T06:43:31.504Z,17.20
2022-12-31T06:46:05.048Z,17.20
2022-12-31T06:48:32.360Z,17.20
2022-12-31T06:51:09.566Z,17.20
2022-12-31T06:53:40.549Z,17.20
2022-12-31T06:56:33.825Z,17.20
2022-12-31T06:59:02.334Z,17.20
2022-12-31T07:01:49.295Z,17.20
2022-12-31T07:04:27.793Z,17.20
2022-12-31T07:07:21.132Z,17.30
2022-12-31T07:10:21.552Z,17.30
2022-12-31T07:13:05.506Z,17.30
2022-12-31T07:15:50.835Z,17.30
2022-12-31T07:18:36.742Z,17.30
2022-12-31T07:21:04.050Z,17.30
2022-12-31T07:23:31.011Z,17.30
2022-12-31T07:26:09.695Z,17.40
2022-12-31T07:28:42.350Z,17.30
2022-12-31T07:31:32.838Z,17.30
2022-12-31T07:34:30.748Z,17.40
2022-12-31T07:37:38.936Z,17.30
2022-12-31T07:40:46.788Z,17.40
2022-12-31T07:43:34.727Z,17.30
2022-12-31T07:46:07.487Z,17.30
2022-12-31T07:48:34.461Z,17.40
2022-12-31T07:51:01.515Z,17.30
2022-12-31T07:53:28.571Z,17.40
2022-12-31T07:55:59.709Z,17.40
2022-12-31T07:58:39.027Z,17.40
2022-12-31T08:01:14.397Z,17.40
2022-12-31T08:03:47.784Z,17.40
2022-12-31T08:06:19.517Z,17.40
2022-12-31T08:09:24.767Z,17.40
2022-12-31T08:12:01.119Z,17.40
2022-12-31T08:14:29.409Z,17.40
2022-12-31T08:16:57.499Z,17.50
2022-12-31T08:19:33.470Z,17.40
2022-12-31T08:22:16.144Z,17.40
2022-12-31T08:25:08.225Z,17.40
2022-12-31T08:27:56.523Z,17.40
2022-12-31T08:30:25.417Z,17.50
2022-12-31T08:33:23.839Z,17.50
2022-12-31T08:36:03.441Z,17.50
2022-12-31T08:38:44.527Z,17.50
2022-12-31T08:41:30.904Z,17.50
2022-12-31T08:44:09.625Z,17.60
2022-12-31T08:47:03.237Z,17.60
2022-12-31T08:49:34.005Z,17.60
2022-12-31T08:52:02.414Z,17.60
2022-12-31T08:54:29.510Z,17.60
2022-12-31T08:57:24.299Z,17.60
2022-12-31T09:00:03.415Z,17.60
2022-12-31T09:02:52.158Z,17.60
2022-12-31T09:05:53.136Z,17.60
2022-12-31T09:08:32.647Z,17.60
2022-12-31T09:11:45.910Z,17.60
2022-12-31T09:14:40.734Z,17.70
2022-12-31T09:17:19.331Z,17.70
2022-12-31T09:19:46.215Z,17.80
2022-12-31T09:22:13.126Z,17.70
2022-12-31T09:24:40.144Z,17.70
2022-12-31T09:27:27.759Z,17.70
2022-12-31T09:30:04.749Z,17.80
2022-12-31T09:32:46.506Z,17.90
2022-12-31T09:35:13.296Z,17.90
2022-12-31T09:37:47.584Z,17.90
2022-12-31T09:40:53.675Z,17.90
2022-12-31T09:43:38.901Z,17.90
2022-12-31T09:46:24.548Z,18.00
2022-12-31T09:49:06.359Z,17.90
2022-12-31T09:51:38.944Z,17.90
2022-12-31T09:54:27.427Z,18.00
2022-12-31T09:57:19.134Z,18.00
2022-12-31T10:00:17.509Z,17.90
2022-12-31T10:02:45.159Z,17.90
2022-12-31T10:05:49.227Z,18.00
2022-12-31T10:08:29.849Z,18.00
2022-12-31T10:11:02.985Z,18.00
2022-12-31T10:13:39.347Z,18.00
2022-12-31T10:16:14.677Z,18.00
2022-12-31T10:19:06.307Z,18.00
2022-12-31T10:21:48.632Z,18.10
2022-12-31T10:24:34.460Z,18.10
2022-12-31T10:27:38.995Z,18.20
2022-12-31T10:30:21.312Z,18.20
2022-12-31T10:33:08.736Z,18.30
2022-12-31T10:36:25.961Z,18.40
2022-12-31T10:39:14.497Z,18.40
2022-12-31T10:41:50.241Z,18.40
2022-12-31T10:44:54.317Z,18.40
2022-12-31T10:47:38.310Z,18.40
2022-12-31T10:50:38.884Z,18.40
2022-12-31T10:53:37.251Z,18.40
2022-12-31T10:56:41.641Z,18.40
2022-12-31T10:59:27.228Z,18.40
2022-12-31T11:02:12.719Z,18.40
2022-12-31T11:05:10.383Z,18.40
2022-12-31T11:07:42.660Z,18.40
2022-12-31T11:10:31.111Z,18.40
2022-12-31T11:13:56.475Z,18.40
2022-12-31T11:16:33.752Z,18.40
2022-12-31T11:19:06.488Z,18.40
2022-12-31T11:21:46.818Z,18.40
2022-12-31T11:24:44.159Z,18.40
2022-12-31T11:27:25.934Z,18.50
2022-12-31T11:30:18.798Z,18.50
2022-12-31T11:33:11.156Z,18.60
2022-12-31T11:36:19.746Z,18.60
2022-12-31T11:39:13.075Z,18.70
2022-12-31T11:41:49.546Z,18.70
2022-12-31T11:44:51.899Z,18.70
2022-12-31T11:48:28.656Z,18.70
2022-12-31T11:50:50.022Z,18.70
2022-12-31T11:53:31.712Z,18.60
2022-12-31T11:56:09.921Z,18.60
2022-12-31T11:58:36.745Z,18.50
2022-12-31T12:01:20.705Z,18.50
2022-12-31T12:03:47.926Z,18.50
2022-12-31T12:06:18.226Z,18.40
2022-12-31T12:08:46.641Z,18.40
2022-12-31T12:11:27.330Z,18.40
2022-12-31T12:13:54.136Z,18.40
2022-12-31T12:16:23.809Z,18.40
2022-12-31T12:19:05.809Z,18.40
2022-12-31T12:21:33.474Z,18.30
2022-12-31T12:24:06.021Z,18.40
2022-12-31T12:26:37.643Z,18.40
2022-12-31T12:29:18.054Z,18.40
2022-12-31T12:31:59.556Z,18.40
2022-12-31T12:34:44.448Z,18.40
2022-12-31T12:37:27.981Z,18.40
2022-12-31T12:40:05.656Z,18.50
2022-12-31T12:42:33.059Z,18.50
2022-12-31T12:45:07.154Z,18.50
2022-12-31T12:47:34.820Z,18.50
2022-12-31T12:50:01.980Z,18.40
2022-12-31T12:52:47.779Z,18.40
2022-12-31T12:55:27.628Z,18.30
2022-12-31T12:57:57.499Z,18.30
2022-12-31T13:00:49.943Z,18.30
2022-12-31T13:03:34.735Z,18.30
2022-12-31T13:06:20.020Z,18.30
2022-12-31T13:09:31.399Z,18.30
2022-12-31T13:12:07.739Z,18.30
2022-12-31T13:15:02.747Z,18.30
2022-12-31T13:17:56.138Z,18.30
2022-12-31T13:20:32.986Z,18.30
2022-12-31T13:23:18.407Z,18.30
2022-12-31T13:26:14.188Z,18.30
2022-12-31T13:28:43.405Z,18.30
2022-12-31T13:31:15.159Z,18.20
2022-12-31T13:33:49.622Z,18.20
2022-12-31T13:36:23.358Z,18.10
2022-12-31T13:38:54.047Z,18.00
2022-12-31T13:41:41.732Z,18.00
2022-12-31T13:44:34.954Z,17.90
2022-12-31T13:47:54.554Z,17.80
2022-12-31T13:50:32.712Z,17.70
2022-12-31T13:53:33.006Z,17.70
2022-12-31T13:56:05.953Z,17.70
2022-12-31T13:58:42.070Z,17.70
2022-12-31T14:01:25.394Z,17.60
2022-12-31T14:04:14.561Z,17.60
2022-12-31T14:07:32.542Z,17.50
2022-12-31T14:10:02.229Z,17.50
2022-12-31T14:12:55.360Z,17.40
2022-12-31T14:15:37.422Z,17.40
2022-12-31T14:18:19.442Z,17.40
2022-12-31T14:20:56.799Z,17.40
2022-12-31T14:23:49.711Z,17.30
2022-12-31T14:26:41.880Z,17.30
2022-12-31T14:29:11.352Z,17.20
2022-12-31T14:31:51.692Z,17.20
2022-12-31T14:34:55.757Z,17.20
2022-12-31T14:37:22.427Z,17.20
2022-12-31T14:40:02.647Z,17.20
2022-12-31T14:42:51.590Z,17.20
2022-12-31T14:45:51.790Z,17.20
2022-12-31T14:48:44.434Z,17.20
2022-12-31T14:51:12.453Z,17.20
2022-12-31T14:53:39.247Z,17.20
2022-12-31T14:56:25.349Z,17.20
2022-12-31T14:59:01.483Z,17.20
2022-12-31T15:01:29.230Z,17.20
2022-12-31T15:03:58.173Z,17.20
2022-12-31T15:06:27.734Z,17.20
2022-12-31T15:09:18.563Z,17.20
2022-12-31T15:12:10.581Z,17.20
2022-12-31T15:14:58.818Z,17.30
2022-12-31T15:17:41.113Z,17.20
2022-12-31T15:20:23.155Z,17.30
2022-12-31T15:22:51.828Z,17.20
2022-12-31T15:25:35.210Z,17.30
2022-12-31T15:28:08.580Z,17.30
2022-12-31T15:30:35.413Z,17.30
2022-12-31T15:33:05.943Z,17.30
2022-12-31T15:35:49.220Z,17.30
2022-12-31T15:38:15.874Z,17.30
2022-12-31T15:40:50.701Z,17.20
2022-12-31T15:43:43.881Z,17.20
2022-12-31T15:46:20.122Z,17.10
2022-12-31T15:48:53.873Z,17.00
2022-12-31T15:51:28.779Z,17.00
2022-12-31T15:53:58.222Z,16.90
2022-12-31T15:56:49.137Z,16.90
2022-12-31T15:59:27.781Z,16.90
2022-12-31T16:01:57.722Z,16.90
2022-12-31T16:04:33.493Z,16.90
2022-12-31T16:07:03.934Z,16.80
2022-12-31T16:09:34.213Z,16.80
2022-12-31T16:12:03.715Z,16.80
2022-12-31T16:14:39.375Z,16.80
2022-12-31T16:17:07.020Z,16.80
2022-12-31T16:19:43.734Z,16.80
2022-12-31T16:22:26.905Z,16.70
2022-12-31T16:25:29.539Z,16.70
2022-12-31T16:27:49.777Z,16.70
2022-12-31T16:30:21.479Z,16.70
2022-12-31T16:32:50.601Z,16.70
2022-12-31T16:35:32.908Z,16.60
2022-12-31T16:38:12.181Z,16.60
2022-12-31T16:40:40.493Z,16.60
2022-12-31T16:43:31.155Z,16.60
2022-12-31T16:46:08.554Z,16.50
2022-12-31T16:48:35.439Z,16.50
2022-12-31T16:51:03.140Z,16.50
2022-12-31T16:53:34.161Z,16.50
2022-12-31T16:56:05.335Z,16.50
2022-12-31T16:58:36.861Z,16.40
2022-12-31T17:01:27.645Z,16.40
2022-12-31T17:04:02.275Z,16.40
2022-12-31T17:06:32.197Z,16.40
2022-12-31T17:09:09.957Z,16.30
2022-12-31T17:11:43.883Z,16.30
2022-12-31T17:14:13.853Z,16.30
2022-12-31T17:17:07.880Z,16.30
2022-12-31T17:19:51.803Z,16.30
2022-12-31T17:22:36.911Z,16.20
2022-12-31T17:25:21.895Z,16.20
2022-12-31T17:28:02.228Z,16.20
2022-12-31T17:30:35.086Z,16.20
2022-12-31T17:33:09.198Z,16.10
2022-12-31T17:35:42.207Z,16.10
2022-12-31T17:38:20.928Z,16.10
2022-12-31T17:41:05.383Z,16.10
2022-12-31T17:43:35.506Z,16.10
2022-12-31T17:46:08.971Z,16.10
2022-12-31T17:48:36.939Z,16.00
2022-12-31T17:51:03.826Z,16.00
2022-12-31T17:53:30.554Z,16.00
2022-12-31T17:56:02.481Z,16.00
2022-12-31T17:58:31.954Z,16.10
2022-12-31T18:00:59.745Z,16.10
2022-12-31T18:03:26.625Z,16.10
2022-12-31T18:05:53.409Z,16.00
2022-12-31T18:08:20.081Z,16.00
2022-12-31T18:10:47.024Z,16.10
2022-12-31T18:13:17.856Z,16.10
2022-12-31T18:15:44.875Z,16.10
2022-12-31T18:18:25.567Z,16.00
2022-12-31T18:21:17.978Z,16.00
2022-12-31T18:23:47.964Z,16.00
2022-12-31T18:26:17.586Z,16.00
2022-12-31T18:28:44.598Z,16.00
2022-12-31T18:31:22.142Z,16.00
2022-12-31T18:33:50.868Z,15.90
2022-12-31T18:36:19.101Z,15.90
2022-12-31T18:38:45.964Z,16.00
2022-12-31T18:41:20.337Z,16.00
2022-12-31T18:43:47.961Z,16.00
2022-12-31T18:46:17.093Z,16.00
2022-12-31T18:48:44.424Z,15.90
2022-12-31T18:51:29.313Z,15.90
2022-12-31T18:53:59.215Z,15.90
2022-12-31T18:56:25.993Z,15.90
2022-12-31T18:58:52.757Z,15.90
2022-12-31T19:01:33.114Z,15.90
2022-12-31T19:04:10.589Z,15.90
2022-12-31T19:06:37.455Z,15.90
2022-12-31T19:09:13.174Z,15.90
2022-12-31T19:11:51.263Z,15.90
2022-12-31T19:14:24.211Z,15.90
2022-12-31T19:16:53.392Z,15.90
2022-12-31T19:19:20.953Z,16.00
2022-12-31T19:21:47.812Z,15.90
2022-12-31T19:24:23.648Z,15.90
2022-12-31T19:26:50.691Z,15.90
2022-12-31T19:29:22.325Z,15.90
2022-12-31T19:31:49.450Z,16.00
2022-12-31T19:34:16.429Z,16.00
2022-12-31T19:36:44.402Z,16.00
2022-12-31T19:39:19.598Z,16.00
2022-12-31T19:41:51.430Z,16.00
2022-12-31T19:44:21.420Z,16.00
2022-12-31T19:46:49.234Z,16.00
2022-12-31T19:49:16.316Z,16.00
2022-12-31T19:51:43.210Z,16.00
2022-12-31T19:54:12.505Z,16.00
2022-12-31T19:56:39.467Z,16.00
2022-12-31T19:59:07.655Z,16.00
2022-12-31T20:01:34.524Z,16.00
2022-12-31T20:04:01.362Z,15.90
2022-12-31T20:06:28.125Z,16.00
2022-12-31T20:08:54.860Z,15.90
2022-12-31T20:11:23.275Z,15.90
2022-12-31T20:13:52.559Z,15.90
2022-12-31T20:16:22.760Z,15.80
2022-12-31T20:18:50.569Z,15.90
2022-12-31T20:21:23.019Z,15.90
2022-12-31T20:23:51.599Z,15.90
2022-12-31T20:26:19.686Z,16.00
2022-12-31T20:28:46.823Z,15.90
2022-12-31T20:31:19.554Z,15.90
2022-12-31T20:33:46.415Z,15.90
2022-12-31T20:36:15.621Z,15.90
2022-12-31T20:38:42.468Z,15.90
2022-12-31T20:41:12.712Z,16.00
2022-12-31T20:43:39.916Z,15.90
2022-12-31T20:46:16.161Z,16.00
2022-12-31T20:48:44.318Z,15.90
2022-12-31T20:51:11.814Z,16.00
2022-12-31T20:53:38.485Z,16.00
2022-12-31T20:56:07.462Z,16.00
2022-12-31T20:58:34.718Z,16.00
2022-12-31T21:01:04.955Z,16.00
2022-12-31T21:06:19.494Z,16.00
2022-12-31T21:08:46.797Z,15.90
2022-12-31T21:11:32.853Z,16.00
2022-12-31T21:14:00.663Z,16.00
2022-12-31T21:16:27.898Z,15.90
2022-12-31T21:18:55.250Z,15.90
2022-12-31T21:21:22.439Z,15.80
2022-12-31T21:23:49.503Z,15.80
2022-12-31T21:26:16.749Z,15.70
2022-12-31T21:28:43.539Z,15.70
2022-12-31T21:31:12.387Z,15.70
2022-12-31T21:33:39.197Z,15.60
2022-12-31T21:36:06.091Z,15.60
2022-12-31T21:38:35.430Z,15.50
2022-12-31T21:41:04.081Z,15.50
2022-12-31T21:43:31.287Z,15.50
2022-12-31T21:46:03.485Z,15.40
2022-12-31T21:48:30.541Z,15.40
2022-12-31T21:51:13.154Z,15.40
2022-12-31T21:53:40.290Z,15.30
2022-12-31T21:56:08.490Z,15.30
2022-12-31T21:58:44.148Z,15.30
2022-12-31T22:01:36.535Z,15.40
2022-12-31T22:04:03.582Z,15.40
2022-12-31T22:06:30.901Z,15.40
2022-12-31T22:08:57.961Z,15.40
2022-12-31T22:11:27.474Z,15.40
2022-12-31T22:13:55.329Z,15.50
2022-12-31T22:16:22.702Z,15.50
2022-12-31T22:18:49.910Z,15.50
2022-12-31T22:21:20.669Z,15.50
2022-12-31T22:23:53.642Z,15.60
2022-12-31T22:26:26.087Z,15.60
2022-12-31T22:28:54.522Z,15.70
2022-12-31T22:31:24.532Z,15.70
2022-12-31T22:33:51.916Z,15.70
2022-12-31T22:36:21.056Z,15.80
2022-12-31T22:38:49.427Z,15.80
2022-12-31T22:41:20.721Z,15.80
2022-12-31T22:43:58.683Z,15.80
2022-12-31T22:46:29.738Z,15.90
2022-12-31T22:49:00.529Z,15.90
2022-12-31T22:51:57.254Z,15.90
2022-12-31T22:54:15.244Z,15.90
2022-12-31T22:56:42.116Z,15.90
2022-12-31T22:59:09.418Z,15.80
2022-12-31T23:01:36.297Z,15.80
2022-12-31T23:04:03.165Z,15.80
2022-12-31T23:06:29.978Z,15.80
2022-12-31T23:09:15.039Z,15.90
2022-12-31T23:11:43.231Z,15.90
2022-12-31T23:14:34.765Z,15.90
2022-12-31T23:17:29.801Z,15.90
2022-12-31T23:20:17.883Z,16.00
2022-12-31T23:23:03.954Z,16.00
2022-12-31T23:25:55.397Z,16.00
2022-12-31T23:28:24.468Z,16.00
2022-12-31T23:30:51.952Z,16.00
2022-12-31T23:33:24.273Z,16.00
2022-12-31T23:35:51.067Z,16.00
2022-12-31T23:38:18.842Z,16.10
2022-12-31T23:40:45.629Z,16.10
2022-12-31T23:43:21.393Z,16.10
2022-12-31T23:45:50.347Z,16.00
2022-12-31T23:48:17.156Z,16.00
2022-12-31T23:50:49.177Z,16.00
2022-12-31T23:53:19.395Z,16.00
2022-12-31T23:55:46.136Z,15.90
2022-12-31T23:58:12.877Z,16.00
